sensor_id;sensor_type;location;lat;lon;timestamp;P1;durP1;ratioP1;P2;durP2;ratioP2
68250;SDS011;55066;51.560;4.642;2023-06-14T00:01:43;7.00;;;3.63;;
68250;SDS011;55066;51.560;4.642;2023-06-14T00:04:10;7.45;;;3.72;;
68250;SDS011;55066;51.560;4.642;2023-06-14T00:06:36;5.70;;;3.60;;
68250;SDS011;55066;51.560;4.642;2023-06-14T00:09:03;8.35;;;3.70;;
68250;SDS011;55066;51.560;4.642;2023-06-14T00:11:30;6.85;;;3.40;;
68250;SDS011;55066;51.560;4.642;2023-06-14T00:13:56;6.18;;;3.42;;
68250;SDS011;55066;51.560;4.642;2023-06-14T00:16:21;7.60;;;3.17;;
68250;SDS011;55066;51.560;4.642;2023-06-14T00:18:47;7.88;;;3.95;;
68250;SDS011;55066;51.560;4.642;2023-06-14T00:21:13;7.30;;;3.50;;
68250;SDS011;55066;51.560;4.642;2023-06-14T00:23:39;8.75;;;3.42;;
68250;SDS011;55066;51.560;4.642;2023-06-14T00:26:05;8.00;;;3.90;;
68250;SDS011;55066;51.560;4.642;2023-06-14T00:28:30;7.03;;;3.60;;
68250;SDS011;55066;51.560;4.642;2023-06-14T00:30:55;7.20;;;3.27;;
68250;SDS011;55066;51.560;4.642;2023-06-14T00:33:21;6.40;;;3.30;;
68250;SDS011;55066;51.560;4.642;2023-06-14T00:35:46;7.53;;;3.60;;
68250;SDS011;55066;51.560;4.642;2023-06-14T00:38:12;8.40;;;3.10;;
68250;SDS011;55066;51.560;4.642;2023-06-14T00:40:39;9.35;;;3.35;;
68250;SDS011;55066;51.560;4.642;2023-06-14T00:43:08;9.50;;;3.30;;
68250;SDS011;55066;51.560;4.642;2023-06-14T00:45:33;5.88;;;3.45;;
68250;SDS011;55066;51.560;4.642;2023-06-14T00:48:01;6.50;;;3.23;;
68250;SDS011;55066;51.560;4.642;2023-06-14T00:50:28;7.80;;;3.13;;
68250;SDS011;55066;51.560;4.642;2023-06-14T00:52:54;7.55;;;3.30;;
68250;SDS011;55066;51.560;4.642;2023-06-14T00:55:20;6.63;;;3.22;;
68250;SDS011;55066;51.560;4.642;2023-06-14T00:57:46;6.93;;;3.27;;
68250;SDS011;55066;51.560;4.642;2023-06-14T01:00:12;6.72;;;3.47;;
68250;SDS011;55066;51.560;4.642;2023-06-14T01:02:38;8.70;;;3.90;;
68250;SDS011;55066;51.560;4.642;2023-06-14T01:05:04;6.50;;;3.13;;
68250;SDS011;55066;51.560;4.642;2023-06-14T01:15:47;7.20;;;3.00;;
68250;SDS011;55066;51.560;4.642;2023-06-14T01:18:13;5.60;;;3.38;;
68250;SDS011;55066;51.560;4.642;2023-06-14T01:20:45;7.70;;;3.20;;
68250;SDS011;55066;51.560;4.642;2023-06-14T01:23:20;8.50;;;3.35;;
68250;SDS011;55066;51.560;4.642;2023-06-14T01:25:49;5.87;;;3.00;;
68250;SDS011;55066;51.560;4.642;2023-06-14T01:28:18;8.63;;;3.40;;
68250;SDS011;55066;51.560;4.642;2023-06-14T01:30:47;9.10;;;3.35;;
68250;SDS011;55066;51.560;4.642;2023-06-14T01:33:15;6.45;;;3.20;;
68250;SDS011;55066;51.560;4.642;2023-06-14T01:35:47;7.18;;;3.38;;
68250;SDS011;55066;51.560;4.642;2023-06-14T01:38:15;7.17;;;3.50;;
68250;SDS011;55066;51.560;4.642;2023-06-14T01:40:44;6.05;;;3.00;;
68250;SDS011;55066;51.560;4.642;2023-06-14T01:43:10;8.77;;;3.40;;
68250;SDS011;55066;51.560;4.642;2023-06-14T01:45:38;6.53;;;3.25;;
68250;SDS011;55066;51.560;4.642;2023-06-14T01:48:09;8.13;;;3.50;;
68250;SDS011;55066;51.560;4.642;2023-06-14T01:50:34;8.13;;;3.63;;
68250;SDS011;55066;51.560;4.642;2023-06-14T01:53:00;7.35;;;3.60;;
68250;SDS011;55066;51.560;4.642;2023-06-14T01:55:30;7.63;;;3.20;;
68250;SDS011;55066;51.560;4.642;2023-06-14T01:58:02;9.97;;;3.70;;
68250;SDS011;55066;51.560;4.642;2023-06-14T02:00:29;5.47;;;3.05;;
68250;SDS011;55066;51.560;4.642;2023-06-14T02:02:56;8.57;;;3.08;;
68250;SDS011;55066;51.560;4.642;2023-06-14T02:05:25;5.63;;;2.80;;
68250;SDS011;55066;51.560;4.642;2023-06-14T02:07:56;7.30;;;3.22;;
68250;SDS011;55066;51.560;4.642;2023-06-14T02:10:21;6.17;;;3.17;;
68250;SDS011;55066;51.560;4.642;2023-06-14T02:12:47;11.87;;;3.50;;
68250;SDS011;55066;51.560;4.642;2023-06-14T02:15:15;5.55;;;3.10;;
68250;SDS011;55066;51.560;4.642;2023-06-14T02:17:47;8.93;;;3.90;;
68250;SDS011;55066;51.560;4.642;2023-06-14T02:20:16;7.03;;;3.28;;
68250;SDS011;55066;51.560;4.642;2023-06-14T02:22:41;6.20;;;2.97;;
68250;SDS011;55066;51.560;4.642;2023-06-14T02:25:08;7.17;;;3.20;;
68250;SDS011;55066;51.560;4.642;2023-06-14T02:27:34;9.38;;;3.17;;
68250;SDS011;55066;51.560;4.642;2023-06-14T02:30:02;6.03;;;3.07;;
68250;SDS011;55066;51.560;4.642;2023-06-14T02:32:28;6.57;;;3.17;;
68250;SDS011;55066;51.560;4.642;2023-06-14T02:34:53;8.43;;;3.30;;
68250;SDS011;55066;51.560;4.642;2023-06-14T02:37:20;7.80;;;3.30;;
68250;SDS011;55066;51.560;4.642;2023-06-14T02:39:45;8.07;;;3.58;;
68250;SDS011;55066;51.560;4.642;2023-06-14T02:42:12;7.75;;;3.25;;
68250;SDS011;55066;51.560;4.642;2023-06-14T02:44:37;7.20;;;3.33;;
68250;SDS011;55066;51.560;4.642;2023-06-14T02:47:03;6.73;;;3.33;;
68250;SDS011;55066;51.560;4.642;2023-06-14T02:49:30;7.10;;;3.03;;
68250;SDS011;55066;51.560;4.642;2023-06-14T02:51:57;5.53;;;3.20;;
68250;SDS011;55066;51.560;4.642;2023-06-14T02:54:24;6.43;;;3.20;;
68250;SDS011;55066;51.560;4.642;2023-06-14T02:56:50;5.93;;;3.28;;
68250;SDS011;55066;51.560;4.642;2023-06-14T02:59:18;7.80;;;3.40;;
68250;SDS011;55066;51.560;4.642;2023-06-14T03:01:46;10.23;;;3.20;;
68250;SDS011;55066;51.560;4.642;2023-06-14T03:04:14;8.90;;;3.45;;
68250;SDS011;55066;51.560;4.642;2023-06-14T03:06:41;8.68;;;3.10;;
68250;SDS011;55066;51.560;4.642;2023-06-14T03:09:11;7.25;;;3.50;;
68250;SDS011;55066;51.560;4.642;2023-06-14T03:11:41;8.45;;;3.63;;
68250;SDS011;55066;51.560;4.642;2023-06-14T03:14:10;6.73;;;3.37;;
68250;SDS011;55066;51.560;4.642;2023-06-14T03:16:40;7.88;;;3.20;;
68250;SDS011;55066;51.560;4.642;2023-06-14T03:19:09;8.23;;;3.10;;
68250;SDS011;55066;51.560;4.642;2023-06-14T03:21:37;8.23;;;2.85;;
68250;SDS011;55066;51.560;4.642;2023-06-14T03:24:03;8.90;;;3.55;;
68250;SDS011;55066;51.560;4.642;2023-06-14T03:26:30;12.83;;;3.40;;
68250;SDS011;55066;51.560;4.642;2023-06-14T03:28:57;8.15;;;3.40;;
68250;SDS011;55066;51.560;4.642;2023-06-14T03:31:23;10.48;;;3.25;;
68250;SDS011;55066;51.560;4.642;2023-06-14T03:33:49;7.22;;;3.30;;
68250;SDS011;55066;51.560;4.642;2023-06-14T03:36:15;9.13;;;3.10;;
68250;SDS011;55066;51.560;4.642;2023-06-14T03:38:44;8.07;;;3.40;;
68250;SDS011;55066;51.560;4.642;2023-06-14T03:41:11;7.20;;;3.35;;
68250;SDS011;55066;51.560;4.642;2023-06-14T03:43:37;6.05;;;3.15;;
68250;SDS011;55066;51.560;4.642;2023-06-14T03:46:03;7.68;;;3.30;;
68250;SDS011;55066;51.560;4.642;2023-06-14T03:48:30;10.00;;;3.58;;
68250;SDS011;55066;51.560;4.642;2023-06-14T03:50:55;7.70;;;3.57;;
68250;SDS011;55066;51.560;4.642;2023-06-14T03:53:21;7.25;;;3.45;;
68250;SDS011;55066;51.560;4.642;2023-06-14T03:55:50;8.30;;;3.50;;
68250;SDS011;55066;51.560;4.642;2023-06-14T03:58:23;8.27;;;3.58;;
68250;SDS011;55066;51.560;4.642;2023-06-14T04:00:49;10.00;;;3.53;;
68250;SDS011;55066;51.560;4.642;2023-06-14T04:03:16;6.27;;;3.27;;
68250;SDS011;55066;51.560;4.642;2023-06-14T04:05:42;10.93;;;3.53;;
68250;SDS011;55066;51.560;4.642;2023-06-14T04:08:09;6.77;;;3.20;;
68250;SDS011;55066;51.560;4.642;2023-06-14T04:10:46;7.85;;;3.75;;
68250;SDS011;55066;51.560;4.642;2023-06-14T04:13:14;8.68;;;3.33;;
68250;SDS011;55066;51.560;4.642;2023-06-14T04:15:41;6.13;;;3.92;;
68250;SDS011;55066;51.560;4.642;2023-06-14T04:18:14;6.10;;;3.50;;
68250;SDS011;55066;51.560;4.642;2023-06-14T04:20:43;6.93;;;3.73;;
68250;SDS011;55066;51.560;4.642;2023-06-14T04:23:12;8.30;;;3.30;;
68250;SDS011;55066;51.560;4.642;2023-06-14T04:25:39;6.43;;;3.30;;
68250;SDS011;55066;51.560;4.642;2023-06-14T04:28:05;6.97;;;3.00;;
68250;SDS011;55066;51.560;4.642;2023-06-14T04:30:34;7.35;;;3.33;;
68250;SDS011;55066;51.560;4.642;2023-06-14T04:33:02;11.88;;;3.50;;
68250;SDS011;55066;51.560;4.642;2023-06-14T04:35:33;7.38;;;3.35;;
68250;SDS011;55066;51.560;4.642;2023-06-14T04:38:01;9.60;;;3.50;;
68250;SDS011;55066;51.560;4.642;2023-06-14T04:40:29;8.43;;;3.33;;
68250;SDS011;55066;51.560;4.642;2023-06-14T04:42:55;11.20;;;3.65;;
68250;SDS011;55066;51.560;4.642;2023-06-14T04:45:25;12.07;;;3.60;;
68250;SDS011;55066;51.560;4.642;2023-06-14T04:47:56;8.73;;;3.40;;
68250;SDS011;55066;51.560;4.642;2023-06-14T04:50:26;7.83;;;3.53;;
68250;SDS011;55066;51.560;4.642;2023-06-14T04:52:52;7.25;;;3.60;;
68250;SDS011;55066;51.560;4.642;2023-06-14T04:55:19;6.28;;;3.10;;
68250;SDS011;55066;51.560;4.642;2023-06-14T04:57:45;6.90;;;3.30;;
68250;SDS011;55066;51.560;4.642;2023-06-14T05:00:12;9.38;;;3.33;;
68250;SDS011;55066;51.560;4.642;2023-06-14T05:02:38;10.93;;;3.40;;
68250;SDS011;55066;51.560;4.642;2023-06-14T05:05:05;6.13;;;3.20;;
68250;SDS011;55066;51.560;4.642;2023-06-14T05:07:32;11.88;;;3.70;;
68250;SDS011;55066;51.560;4.642;2023-06-14T05:09:58;8.40;;;3.40;;
68250;SDS011;55066;51.560;4.642;2023-06-14T05:12:27;8.07;;;3.55;;
68250;SDS011;55066;51.560;4.642;2023-06-14T05:14:58;6.45;;;3.28;;
68250;SDS011;55066;51.560;4.642;2023-06-14T05:17:24;8.20;;;3.30;;
68250;SDS011;55066;51.560;4.642;2023-06-14T05:19:52;10.38;;;3.60;;
68250;SDS011;55066;51.560;4.642;2023-06-14T05:22:18;7.13;;;3.80;;
68250;SDS011;55066;51.560;4.642;2023-06-14T05:24:43;6.57;;;3.03;;
68250;SDS011;55066;51.560;4.642;2023-06-14T05:27:10;5.28;;;3.00;;
68250;SDS011;55066;51.560;4.642;2023-06-14T05:29:37;7.75;;;3.70;;
68250;SDS011;55066;51.560;4.642;2023-06-14T05:32:03;12.10;;;3.40;;
68250;SDS011;55066;51.560;4.642;2023-06-14T05:34:35;6.30;;;3.13;;
68250;SDS011;55066;51.560;4.642;2023-06-14T05:37:00;8.05;;;3.38;;
68250;SDS011;55066;51.560;4.642;2023-06-14T05:39:26;7.77;;;3.37;;
68250;SDS011;55066;51.560;4.642;2023-06-14T05:41:51;7.33;;;3.40;;
68250;SDS011;55066;51.560;4.642;2023-06-14T05:44:16;9.87;;;3.23;;
68250;SDS011;55066;51.560;4.642;2023-06-14T05:46:43;6.77;;;3.57;;
68250;SDS011;55066;51.560;4.642;2023-06-14T05:49:12;6.90;;;3.17;;
68250;SDS011;55066;51.560;4.642;2023-06-14T05:51:39;8.27;;;3.22;;
68250;SDS011;55066;51.560;4.642;2023-06-14T05:54:05;7.95;;;3.80;;
68250;SDS011;55066;51.560;4.642;2023-06-14T05:56:31;7.85;;;3.22;;
68250;SDS011;55066;51.560;4.642;2023-06-14T05:58:57;7.80;;;4.00;;
68250;SDS011;55066;51.560;4.642;2023-06-14T06:01:25;7.68;;;3.40;;
68250;SDS011;55066;51.560;4.642;2023-06-14T06:03:51;7.10;;;3.37;;
68250;SDS011;55066;51.560;4.642;2023-06-14T06:06:17;6.00;;;3.50;;
68250;SDS011;55066;51.560;4.642;2023-06-14T06:08:44;10.43;;;3.53;;
68250;SDS011;55066;51.560;4.642;2023-06-14T06:11:09;7.30;;;3.47;;
68250;SDS011;55066;51.560;4.642;2023-06-14T06:13:36;7.73;;;3.23;;
68250;SDS011;55066;51.560;4.642;2023-06-14T06:16:05;9.02;;;3.45;;
68250;SDS011;55066;51.560;4.642;2023-06-14T06:18:31;6.90;;;3.42;;
68250;SDS011;55066;51.560;4.642;2023-06-14T06:20:56;9.67;;;3.40;;
68250;SDS011;55066;51.560;4.642;2023-06-14T06:23:22;9.18;;;3.30;;
68250;SDS011;55066;51.560;4.642;2023-06-14T06:25:48;7.40;;;3.20;;
68250;SDS011;55066;51.560;4.642;2023-06-14T06:28:13;7.13;;;3.23;;
68250;SDS011;55066;51.560;4.642;2023-06-14T06:30:39;7.22;;;3.50;;
68250;SDS011;55066;51.560;4.642;2023-06-14T06:33:05;8.00;;;3.63;;
68250;SDS011;55066;51.560;4.642;2023-06-14T06:35:30;9.93;;;3.85;;
68250;SDS011;55066;51.560;4.642;2023-06-14T06:37:58;9.90;;;3.30;;
68250;SDS011;55066;51.560;4.642;2023-06-14T06:40:25;10.20;;;3.50;;
68250;SDS011;55066;51.560;4.642;2023-06-14T06:42:50;8.30;;;3.80;;
68250;SDS011;55066;51.560;4.642;2023-06-14T06:45:17;11.23;;;3.75;;
68250;SDS011;55066;51.560;4.642;2023-06-14T06:47:43;10.90;;;3.40;;
68250;SDS011;55066;51.560;4.642;2023-06-14T06:50:08;9.93;;;3.72;;
68250;SDS011;55066;51.560;4.642;2023-06-14T06:52:34;7.43;;;3.50;;
68250;SDS011;55066;51.560;4.642;2023-06-14T06:55:00;8.17;;;3.80;;
68250;SDS011;55066;51.560;4.642;2023-06-14T06:57:27;12.43;;;3.53;;
68250;SDS011;55066;51.560;4.642;2023-06-14T06:59:54;9.55;;;4.05;;
68250;SDS011;55066;51.560;4.642;2023-06-14T07:02:19;11.30;;;3.53;;
68250;SDS011;55066;51.560;4.642;2023-06-14T07:04:45;9.77;;;3.63;;
68250;SDS011;55066;51.560;4.642;2023-06-14T07:07:10;8.23;;;3.90;;
68250;SDS011;55066;51.560;4.642;2023-06-14T07:09:36;8.40;;;4.00;;
68250;SDS011;55066;51.560;4.642;2023-06-14T07:12:01;8.97;;;3.90;;
68250;SDS011;55066;51.560;4.642;2023-06-14T07:14:28;8.65;;;3.80;;
68250;SDS011;55066;51.560;4.642;2023-06-14T07:16:55;12.82;;;4.00;;
68250;SDS011;55066;51.560;4.642;2023-06-14T07:19:20;9.73;;;4.23;;
68250;SDS011;55066;51.560;4.642;2023-06-14T07:21:46;10.00;;;4.40;;
68250;SDS011;55066;51.560;4.642;2023-06-14T07:24:13;7.32;;;3.90;;
68250;SDS011;55066;51.560;4.642;2023-06-14T07:26:38;7.45;;;3.88;;
68250;SDS011;55066;51.560;4.642;2023-06-14T07:29:04;7.80;;;3.90;;
68250;SDS011;55066;51.560;4.642;2023-06-14T07:31:29;8.77;;;3.73;;
68250;SDS011;55066;51.560;4.642;2023-06-14T07:33:55;11.38;;;4.00;;
68250;SDS011;55066;51.560;4.642;2023-06-14T07:36:20;7.00;;;4.40;;
68250;SDS011;55066;51.560;4.642;2023-06-14T07:38:45;8.90;;;3.83;;
68250;SDS011;55066;51.560;4.642;2023-06-14T07:41:11;9.87;;;4.30;;
68250;SDS011;55066;51.560;4.642;2023-06-14T07:46:22;10.10;;;4.37;;
68250;SDS011;55066;51.560;4.642;2023-06-14T07:48:49;7.82;;;4.20;;
68250;SDS011;55066;51.560;4.642;2023-06-14T07:51:15;13.18;;;4.35;;
68250;SDS011;55066;51.560;4.642;2023-06-14T07:53:41;8.82;;;4.15;;
68250;SDS011;55066;51.560;4.642;2023-06-14T07:56:07;8.93;;;4.10;;
68250;SDS011;55066;51.560;4.642;2023-06-14T07:58:33;9.30;;;4.15;;
68250;SDS011;55066;51.560;4.642;2023-06-14T08:00:59;8.93;;;4.20;;
68250;SDS011;55066;51.560;4.642;2023-06-14T08:03:26;9.83;;;4.20;;
68250;SDS011;55066;51.560;4.642;2023-06-14T08:05:51;8.32;;;3.95;;
68250;SDS011;55066;51.560;4.642;2023-06-14T08:08:17;8.63;;;4.20;;
68250;SDS011;55066;51.560;4.642;2023-06-14T08:10:42;14.07;;;4.10;;
68250;SDS011;55066;51.560;4.642;2023-06-14T08:13:09;7.20;;;4.10;;
68250;SDS011;55066;51.560;4.642;2023-06-14T08:15:35;9.73;;;4.32;;
68250;SDS011;55066;51.560;4.642;2023-06-14T08:18:00;12.97;;;4.10;;
68250;SDS011;55066;51.560;4.642;2023-06-14T08:20:27;10.65;;;4.60;;
68250;SDS011;55066;51.560;4.642;2023-06-14T08:22:52;14.00;;;4.30;;
68250;SDS011;55066;51.560;4.642;2023-06-14T08:25:21;12.32;;;4.55;;
68250;SDS011;55066;51.560;4.642;2023-06-14T08:27:49;8.98;;;4.10;;
68250;SDS011;55066;51.560;4.642;2023-06-14T08:30:15;8.57;;;4.30;;
68250;SDS011;55066;51.560;4.642;2023-06-14T08:32:42;9.23;;;4.30;;
68250;SDS011;55066;51.560;4.642;2023-06-14T08:35:08;11.15;;;4.25;;
68250;SDS011;55066;51.560;4.642;2023-06-14T08:37:37;10.63;;;4.50;;
68250;SDS011;55066;51.560;4.642;2023-06-14T08:40:22;8.13;;;3.97;;
68250;SDS011;55066;51.560;4.642;2023-06-14T08:42:52;15.57;;;4.03;;
68250;SDS011;55066;51.560;4.642;2023-06-14T08:45:19;7.20;;;4.17;;
68250;SDS011;55066;51.560;4.642;2023-06-14T08:47:49;9.43;;;4.03;;
68250;SDS011;55066;51.560;4.642;2023-06-14T08:50:24;8.85;;;4.40;;
68250;SDS011;55066;51.560;4.642;2023-06-14T08:52:58;14.02;;;4.05;;
68250;SDS011;55066;51.560;4.642;2023-06-14T08:55:31;10.40;;;4.13;;
68250;SDS011;55066;51.560;4.642;2023-06-14T08:57:58;7.33;;;3.90;;
68250;SDS011;55066;51.560;4.642;2023-06-14T09:00:24;9.60;;;4.10;;
68250;SDS011;55066;51.560;4.642;2023-06-14T09:02:51;12.65;;;4.45;;
68250;SDS011;55066;51.560;4.642;2023-06-14T09:05:24;9.70;;;4.10;;
68250;SDS011;55066;51.560;4.642;2023-06-14T09:07:51;10.05;;;4.30;;
68250;SDS011;55066;51.560;4.642;2023-06-14T09:10:20;5.97;;;4.03;;
68250;SDS011;55066;51.560;4.642;2023-06-14T09:12:46;9.63;;;3.80;;
68250;SDS011;55066;51.560;4.642;2023-06-14T09:15:12;9.35;;;4.15;;
68250;SDS011;55066;51.560;4.642;2023-06-14T09:17:39;11.10;;;4.30;;
68250;SDS011;55066;51.560;4.642;2023-06-14T09:20:05;5.78;;;3.60;;
68250;SDS011;55066;51.560;4.642;2023-06-14T09:22:35;10.23;;;4.15;;
68250;SDS011;55066;51.560;4.642;2023-06-14T09:25:03;8.87;;;3.97;;
68250;SDS011;55066;51.560;4.642;2023-06-14T09:27:30;7.72;;;4.03;;
68250;SDS011;55066;51.560;4.642;2023-06-14T09:29:57;6.85;;;4.07;;
68250;SDS011;55066;51.560;4.642;2023-06-14T09:32:22;6.37;;;3.80;;
68250;SDS011;55066;51.560;4.642;2023-06-14T09:34:50;7.18;;;4.05;;
68250;SDS011;55066;51.560;4.642;2023-06-14T09:37:30;7.03;;;4.10;;
68250;SDS011;55066;51.560;4.642;2023-06-14T09:39:58;7.93;;;3.80;;
68250;SDS011;55066;51.560;4.642;2023-06-14T09:42:24;6.10;;;3.90;;
68250;SDS011;55066;51.560;4.642;2023-06-14T09:44:55;12.10;;;3.65;;
68250;SDS011;55066;51.560;4.642;2023-06-14T09:47:21;7.32;;;3.83;;
68250;SDS011;55066;51.560;4.642;2023-06-14T09:49:48;9.10;;;3.40;;
68250;SDS011;55066;51.560;4.642;2023-06-14T09:52:15;10.50;;;3.65;;
68250;SDS011;55066;51.560;4.642;2023-06-14T09:54:45;9.53;;;3.70;;
68250;SDS011;55066;51.560;4.642;2023-06-14T09:57:13;9.85;;;3.40;;
68250;SDS011;55066;51.560;4.642;2023-06-14T09:59:41;7.75;;;3.67;;
68250;SDS011;55066;51.560;4.642;2023-06-14T10:02:14;7.43;;;3.17;;
68250;SDS011;55066;51.560;4.642;2023-06-14T10:05:03;7.57;;;3.50;;
68250;SDS011;55066;51.560;4.642;2023-06-14T10:10:43;10.95;;;3.25;;
68250;SDS011;55066;51.560;4.642;2023-06-14T10:13:11;8.75;;;3.38;;
68250;SDS011;55066;51.560;4.642;2023-06-14T10:15:58;5.75;;;2.95;;
68250;SDS011;55066;51.560;4.642;2023-06-14T10:18:32;9.75;;;3.17;;
68250;SDS011;55066;51.560;4.642;2023-06-14T10:21:18;6.20;;;3.10;;
68250;SDS011;55066;51.560;4.642;2023-06-14T10:24:07;6.47;;;2.88;;
68250;SDS011;55066;51.560;4.642;2023-06-14T10:26:39;7.10;;;3.30;;
68250;SDS011;55066;51.560;4.642;2023-06-14T10:29:16;6.38;;;3.15;;
68250;SDS011;55066;51.560;4.642;2023-06-14T10:31:43;5.87;;;2.70;;
68250;SDS011;55066;51.560;4.642;2023-06-14T10:34:25;4.55;;;3.03;;
68250;SDS011;55066;51.560;4.642;2023-06-14T10:36:59;5.82;;;2.92;;
68250;SDS011;55066;51.560;4.642;2023-06-14T10:39:27;4.63;;;2.90;;
68250;SDS011;55066;51.560;4.642;2023-06-14T10:41:55;7.43;;;2.97;;
68250;SDS011;55066;51.560;4.642;2023-06-14T10:46:53;4.63;;;2.40;;
68250;SDS011;55066;51.560;4.642;2023-06-14T10:49:38;7.47;;;3.10;;
68250;SDS011;55066;51.560;4.642;2023-06-14T11:00:22;8.60;;;2.95;;
68250;SDS011;55066;51.560;4.642;2023-06-14T11:05:42;5.72;;;2.92;;
68250;SDS011;55066;51.560;4.642;2023-06-14T11:11:09;4.33;;;2.30;;
68250;SDS011;55066;51.560;4.642;2023-06-14T11:13:44;4.50;;;2.40;;
68250;SDS011;55066;51.560;4.642;2023-06-14T11:16:15;3.85;;;2.25;;
68250;SDS011;55066;51.560;4.642;2023-06-14T11:18:42;5.38;;;2.58;;
68250;SDS011;55066;51.560;4.642;2023-06-14T11:21:11;4.68;;;2.20;;
68250;SDS011;55066;51.560;4.642;2023-06-14T11:23:38;5.13;;;2.23;;
68250;SDS011;55066;51.560;4.642;2023-06-14T11:26:04;7.40;;;2.17;;
68250;SDS011;55066;51.560;4.642;2023-06-14T11:28:39;6.88;;;2.15;;
68250;SDS011;55066;51.560;4.642;2023-06-14T11:31:06;3.67;;;1.73;;
68250;SDS011;55066;51.560;4.642;2023-06-14T11:33:32;4.70;;;1.92;;
68250;SDS011;55066;51.560;4.642;2023-06-14T11:35:58;4.17;;;1.90;;
68250;SDS011;55066;51.560;4.642;2023-06-14T11:38:29;3.83;;;1.63;;
68250;SDS011;55066;51.560;4.642;2023-06-14T11:41:07;3.37;;;1.87;;
68250;SDS011;55066;51.560;4.642;2023-06-14T11:43:32;5.28;;;1.77;;
68250;SDS011;55066;51.560;4.642;2023-06-14T11:46:00;2.60;;;1.70;;
68250;SDS011;55066;51.560;4.642;2023-06-14T11:48:38;4.77;;;1.90;;
68250;SDS011;55066;51.560;4.642;2023-06-14T11:51:10;4.55;;;1.70;;
68250;SDS011;55066;51.560;4.642;2023-06-14T11:53:53;2.70;;;1.65;;
68250;SDS011;55066;51.560;4.642;2023-06-14T11:56:20;2.65;;;1.60;;
68250;SDS011;55066;51.560;4.642;2023-06-14T11:58:46;4.40;;;1.90;;
68250;SDS011;55066;51.560;4.642;2023-06-14T12:01:17;6.25;;;1.65;;
68250;SDS011;55066;51.560;4.642;2023-06-14T12:03:48;4.70;;;1.60;;
68250;SDS011;55066;51.560;4.642;2023-06-14T12:06:14;3.92;;;1.80;;
68250;SDS011;55066;51.560;4.642;2023-06-14T12:08:40;4.50;;;1.67;;
68250;SDS011;55066;51.560;4.642;2023-06-14T12:11:13;5.82;;;1.95;;
68250;SDS011;55066;51.560;4.642;2023-06-14T12:13:43;4.13;;;1.60;;
68250;SDS011;55066;51.560;4.642;2023-06-14T12:16:09;3.23;;;1.67;;
68250;SDS011;55066;51.560;4.642;2023-06-14T12:18:36;2.90;;;1.70;;
68250;SDS011;55066;51.560;4.642;2023-06-14T12:21:04;3.97;;;1.85;;
68250;SDS011;55066;51.560;4.642;2023-06-14T12:24:06;3.05;;;1.90;;
68250;SDS011;55066;51.560;4.642;2023-06-14T12:26:25;4.35;;;1.98;;
68250;SDS011;55066;51.560;4.642;2023-06-14T12:28:52;7.33;;;1.77;;
68250;SDS011;55066;51.560;4.642;2023-06-14T12:31:18;4.20;;;1.70;;
68250;SDS011;55066;51.560;4.642;2023-06-14T12:33:44;3.25;;;1.90;;
68250;SDS011;55066;51.560;4.642;2023-06-14T12:36:14;5.55;;;1.80;;
68250;SDS011;55066;51.560;4.642;2023-06-14T12:38:43;6.18;;;2.22;;
68250;SDS011;55066;51.560;4.642;2023-06-14T12:41:09;3.57;;;1.90;;
68250;SDS011;55066;51.560;4.642;2023-06-14T12:43:34;3.47;;;1.98;;
68250;SDS011;55066;51.560;4.642;2023-06-14T12:46:00;4.23;;;1.70;;
68250;SDS011;55066;51.560;4.642;2023-06-14T12:48:25;6.23;;;1.90;;
68250;SDS011;55066;51.560;4.642;2023-06-14T12:50:53;3.50;;;1.70;;
68250;SDS011;55066;51.560;4.642;2023-06-14T12:53:18;4.93;;;1.73;;
68250;SDS011;55066;51.560;4.642;2023-06-14T12:55:44;6.43;;;1.80;;
68250;SDS011;55066;51.560;4.642;2023-06-14T12:58:09;5.07;;;1.80;;
68250;SDS011;55066;51.560;4.642;2023-06-14T13:00:38;2.63;;;1.63;;
68250;SDS011;55066;51.560;4.642;2023-06-14T13:03:03;7.67;;;1.80;;
68250;SDS011;55066;51.560;4.642;2023-06-14T13:05:28;3.28;;;1.67;;
68250;SDS011;55066;51.560;4.642;2023-06-14T13:07:56;3.37;;;1.70;;
68250;SDS011;55066;51.560;4.642;2023-06-14T13:10:21;5.82;;;1.95;;
68250;SDS011;55066;51.560;4.642;2023-06-14T13:12:48;5.18;;;1.90;;
68250;SDS011;55066;51.560;4.642;2023-06-14T13:15:16;2.43;;;1.57;;
68250;SDS011;55066;51.560;4.642;2023-06-14T13:17:45;5.07;;;1.70;;
68250;SDS011;55066;51.560;4.642;2023-06-14T13:20:18;5.25;;;1.90;;
68250;SDS011;55066;51.560;4.642;2023-06-14T13:22:47;7.50;;;2.00;;
68250;SDS011;55066;51.560;4.642;2023-06-14T13:25:13;4.93;;;1.70;;
68250;SDS011;55066;51.560;4.642;2023-06-14T13:27:43;2.95;;;1.70;;
68250;SDS011;55066;51.560;4.642;2023-06-14T13:30:09;3.78;;;1.65;;
68250;SDS011;55066;51.560;4.642;2023-06-14T13:32:35;3.00;;;1.75;;
68250;SDS011;55066;51.560;4.642;2023-06-14T13:37:43;3.07;;;1.90;;
68250;SDS011;55066;51.560;4.642;2023-06-14T13:48:53;4.13;;;1.90;;
68250;SDS011;55066;51.560;4.642;2023-06-14T13:51:25;5.10;;;2.00;;
68250;SDS011;55066;51.560;4.642;2023-06-14T13:53:52;3.40;;;2.00;;
68250;SDS011;55066;51.560;4.642;2023-06-14T13:56:20;5.05;;;1.90;;
68250;SDS011;55066;51.560;4.642;2023-06-14T13:58:49;3.63;;;1.75;;
68250;SDS011;55066;51.560;4.642;2023-06-14T14:01:16;4.57;;;2.00;;
68250;SDS011;55066;51.560;4.642;2023-06-14T14:03:43;3.73;;;1.83;;
68250;SDS011;55066;51.560;4.642;2023-06-14T14:06:10;5.63;;;2.05;;
68250;SDS011;55066;51.560;4.642;2023-06-14T14:08:42;3.65;;;2.10;;
68250;SDS011;55066;51.560;4.642;2023-06-14T14:13:49;5.30;;;1.90;;
68250;SDS011;55066;51.560;4.642;2023-06-14T14:19:51;7.03;;;2.20;;
68250;SDS011;55066;51.560;4.642;2023-06-14T14:22:21;6.30;;;2.13;;
68250;SDS011;55066;51.560;4.642;2023-06-14T14:25:10;3.97;;;1.98;;
68250;SDS011;55066;51.560;4.642;2023-06-14T14:27:38;6.30;;;2.00;;
68250;SDS011;55066;51.560;4.642;2023-06-14T14:30:05;3.53;;;2.17;;
68250;SDS011;55066;51.560;4.642;2023-06-14T14:32:44;4.55;;;1.90;;
68250;SDS011;55066;51.560;4.642;2023-06-14T14:35:16;5.53;;;2.10;;
68250;SDS011;55066;51.560;4.642;2023-06-14T14:37:50;3.42;;;2.00;;
68250;SDS011;55066;51.560;4.642;2023-06-14T14:40:24;6.22;;;2.17;;
68250;SDS011;55066;51.560;4.642;2023-06-14T14:43:00;5.07;;;1.93;;
68250;SDS011;55066;51.560;4.642;2023-06-14T14:45:26;5.20;;;2.03;;
68250;SDS011;55066;51.560;4.642;2023-06-14T14:48:08;5.53;;;1.90;;
68250;SDS011;55066;51.560;4.642;2023-06-14T14:50:39;3.38;;;2.10;;
68250;SDS011;55066;51.560;4.642;2023-06-14T14:53:25;3.10;;;1.83;;
68250;SDS011;55066;51.560;4.642;2023-06-14T14:55:51;3.13;;;2.00;;
68250;SDS011;55066;51.560;4.642;2023-06-14T14:58:40;4.22;;;1.75;;
68250;SDS011;55066;51.560;4.642;2023-06-14T15:21:29;3.60;;;1.90;;
68250;SDS011;55066;51.560;4.642;2023-06-14T15:25:02;6.53;;;2.00;;
68250;SDS011;55066;51.560;4.642;2023-06-14T15:27:28;3.20;;;1.92;;
68250;SDS011;55066;51.560;4.642;2023-06-14T15:29:53;4.37;;;1.80;;
68250;SDS011;55066;51.560;4.642;2023-06-14T15:32:19;4.40;;;1.80;;
68250;SDS011;55066;51.560;4.642;2023-06-14T15:34:47;3.50;;;1.60;;
68250;SDS011;55066;51.560;4.642;2023-06-14T15:37:15;7.70;;;2.07;;
68250;SDS011;55066;51.560;4.642;2023-06-14T15:42:31;6.57;;;1.80;;
68250;SDS011;55066;51.560;4.642;2023-06-14T15:44:57;5.87;;;1.90;;
68250;SDS011;55066;51.560;4.642;2023-06-14T15:47:23;4.68;;;1.95;;
68250;SDS011;55066;51.560;4.642;2023-06-14T15:49:48;4.15;;;2.30;;
68250;SDS011;55066;51.560;4.642;2023-06-14T15:52:14;5.97;;;1.80;;
68250;SDS011;55066;51.560;4.642;2023-06-14T15:54:40;4.05;;;1.90;;
68250;SDS011;55066;51.560;4.642;2023-06-14T15:57:06;3.93;;;2.00;;
68250;SDS011;55066;51.560;4.642;2023-06-14T15:59:32;4.78;;;1.88;;
68250;SDS011;55066;51.560;4.642;2023-06-14T16:01:58;7.40;;;1.93;;
68250;SDS011;55066;51.560;4.642;2023-06-14T16:04:28;4.00;;;1.83;;